Time;durP1;ratioP1;P1;durP2;ratioP2;P2;SDS_P1;SDS_P2;PMS_P1;PMS_P2;Temp;Humidity;BMP_temperature;BMP_pressure;BME280_temperature;BME280_humidity;BME280_pressure;Samples;Min_cycle;Max_cycle;Signal;HPM_P1;HPM_P2
2023/08/21 00:00:59;;;;;;;9.97;8.97;;;;;;;;;;5067500;28;20516;-81
2023/08/21 00:03:26;;;;;;;11.53;10.33;;;;;;;;;;5066740;28;20514;-81
2023/08/21 00:05:53;;;;;;;10.80;9.67;;;;;;;;;;5065735;28;20961;-82
2023/08/21 00:08:20;;;;;;;10.60;9.50;;;;;;;;;;5066950;28;20948;-82
2023/08/21 00:10:47;;;;;;;9.83;8.83;;;;;;;;;;5066765;28;20894;-82
2023/08/21 00:13:15;;;;;;;10.93;9.80;;;;;;;;;;5066405;28;21012;-81
2023/08/21 00:15:42;;;;;;;10.30;9.30;;;;;;;;;;5066353;28;20459;-81
2023/08/21 00:18:10;;;;;;;10.00;9.10;;;;;;;;;;5066061;28;20929;-82
2023/08/21 00:20:37;;;;;;;10.93;9.73;;;;;;;;;;5065051;28;20452;-82
2023/08/21 00:23:05;;;;;;;12.47;9.73;;;;;;;;;;5065210;28;20465;-82
2023/08/21 00:25:32;;;;;;;14.53;9.20;;;;;;;;;;5065651;28;20448;-81
2023/08/21 00:27:59;;;;;;;10.17;9.20;;;;;;;;;;5066056;28;20973;-82
2023/08/21 00:30:26;;;;;;;12.10;9.20;;;;;;;;;;5066013;28;20456;-81
2023/08/21 00:32:53;;;;;;;10.70;9.70;;;;;;;;;;5065651;28;20487;-80
2023/08/21 00:35:21;;;;;;;12.03;10.23;;;;;;;;;;5066103;28;21000;-82
2023/08/21 00:37:49;;;;;;;10.87;9.87;;;;;;;;;;5065302;28;20456;-81
2023/08/21 00:40:16;;;;;;;10.53;9.43;;;;;;;;;;5065806;28;20475;-80
2023/08/21 00:42:43;;;;;;;13.27;10.60;;;;;;;;;;5065987;28;20480;-81
2023/08/21 00:45:11;;;;;;;10.70;9.80;;;;;;;;;;5065897;28;20479;-81
2023/08/21 00:47:39;;;;;;;12.73;10.10;;;;;;;;;;5064474;28;20487;-81
2023/08/21 00:50:07;;;;;;;13.43;10.40;;;;;;;;;;5065068;28;20448;-82
2023/08/21 00:52:36;;;;;;;11.07;10.07;;;;;;;;;;5064411;28;20478;-80
2023/08/21 00:55:04;;;;;;;14.13;10.30;;;;;;;;;;5064154;28;20488;-80
2023/08/21 00:57:31;;;;;;;11.53;10.37;;;;;;;;;;5065391;28;20447;-82
2023/08/21 00:59:58;;;;;;;12.10;10.67;;;;;;;;;;5065613;28;20449;-80
2023/08/21 01:02:25;;;;;;;14.03;11.17;;;;;;;;;;5065314;28;20469;-80
2023/08/21 01:04:53;;;;;;;12.70;11.40;;;;;;;;;;5064717;28;20457;-80
2023/08/21 01:07:20;;;;;;;11.40;10.40;;;;;;;;;;5065417;28;20437;-80
2023/08/21 01:09:51;;;;;;;20.13;10.73;;;;;;;;;;5065280;28;20464;-80
2023/08/21 01:12:24;;;;;;;15.43;11.53;;;;;;;;;;5065380;28;20851;-81
2023/08/21 01:14:56;;;;;;;11.50;10.00;;;;;;;;;;5065414;28;20571;-82
2023/08/21 01:17:25;;;;;;;12.53;10.27;;;;;;;;;;5065289;28;20448;-80
2023/08/21 01:19:53;;;;;;;11.60;10.43;;;;;;;;;;5065176;28;20456;-80
2023/08/21 01:22:20;;;;;;;12.03;9.73;;;;;;;;;;5065345;28;20479;-80
2023/08/21 01:24:49;;;;;;;13.13;10.10;;;;;;;;;;5065303;28;20452;-80
2023/08/21 01:27:16;;;;;;;11.53;10.43;;;;;;;;;;5065653;28;20912;-80
2023/08/21 01:29:44;;;;;;;10.50;9.50;;;;;;;;;;5064901;28;20479;-80
2023/08/21 01:32:15;;;;;;;11.50;10.40;;;;;;;;;;5065120;28;20464;-80
2023/08/21 01:34:43;;;;;;;10.77;9.77;;;;;;;;;;5066137;28;20508;-80
2023/08/21 01:37:10;;;;;;;11.27;10.10;;;;;;;;;;5065853;28;20925;-81
2023/08/21 01:39:38;;;;;;;10.33;9.37;;;;;;;;;;5064338;28;20471;-80
2023/08/21 01:42:06;;;;;;;11.27;10.10;;;;;;;;;;5063405;28;20476;-82
2023/08/21 01:44:33;;;;;;;11.07;10.07;;;;;;;;;;5063557;28;20449;-81
2023/08/21 01:47:00;;;;;;;10.80;9.70;;;;;;;;;;5063864;28;20440;-81
2023/08/21 01:49:28;;;;;;;10.57;9.47;;;;;;;;;;5064146;28;20831;-81
2023/08/21 01:51:55;;;;;;;11.33;10.23;;;;;;;;;;5063332;28;20464;-82
2023/08/21 01:54:22;;;;;;;11.60;9.90;;;;;;;;;;5063379;28;20545;-81
2023/08/21 01:56:49;;;;;;;14.50;12.17;;;;;;;;;;5063496;28;20456;-82
2023/08/21 01:59:18;;;;;;;17.43;12.67;;;;;;;;;;5063574;28;20447;-81
2023/08/21 02:01:45;;;;;;;12.47;11.23;;;;;;;;;;5063763;28;20484;-81
2023/08/21 02:04:12;;;;;;;12.07;10.87;;;;;;;;;;5063495;28;20452;-81
2023/08/21 02:06:39;;;;;;;12.67;10.83;;;;;;;;;;5063767;28;20453;-81
2023/08/21 02:09:06;;;;;;;12.47;11.13;;;;;;;;;;5062978;28;20512;-81
2023/08/21 02:11:35;;;;;;;12.43;11.07;;;;;;;;;;5060824;28;20496;-81
2023/08/21 02:14:02;;;;;;;13.50;11.00;;;;;;;;;;5062788;28;20496;-81
2023/08/21 02:16:30;;;;;;;16.57;14.90;;;;;;;;;;5062627;28;20825;-81
2023/08/21 02:18:57;;;;;;;13.07;11.77;;;;;;;;;;5062373;28;20467;-81
2023/08/21 02:21:24;;;;;;;17.20;12.60;;;;;;;;;;5063559;28;20449;-81
2023/08/21 02:23:52;;;;;;;13.90;11.43;;;;;;;;;;5062209;28;20819;-81
2023/08/21 02:26:19;;;;;;;14.23;9.60;;;;;;;;;;5062000;28;20455;-81
2023/08/21 02:28:47;;;;;;;13.30;10.67;;;;;;;;;;5062127;28;20433;-81
2023/08/21 02:31:14;;;;;;;11.57;10.37;;;;;;;;;;5062763;28;20471;-81
2023/08/21 02:33:42;;;;;;;11.27;10.17;;;;;;;;;;5062718;28;20977;-81
2023/08/21 02:36:09;;;;;;;14.23;12.83;;;;;;;;;;5062129;28;20440;-81
2023/08/21 02:38:37;;;;;;;11.23;9.50;;;;;;;;;;5062773;28;20456;-81
2023/08/21 02:41:04;;;;;;;12.07;10.87;;;;;;;;;;5062401;28;20429;-81
2023/08/21 02:43:31;;;;;;;12.40;10.60;;;;;;;;;;5062156;28;20456;-82
2023/08/21 02:45:58;;;;;;;11.60;10.40;;;;;;;;;;5063206;28;20444;-81
2023/08/21 02:48:25;;;;;;;12.20;11.00;;;;;;;;;;5064046;28;20445;-81
2023/08/21 02:50:54;;;;;;;11.53;10.43;;;;;;;;;;5063478;28;20452;-81
2023/08/21 02:53:21;;;;;;;14.90;10.30;;;;;;;;;;5066118;28;20472;-82
2023/08/21 02:55:48;;;;;;;12.90;10.50;;;;;;;;;;5064051;28;20551;-81
2023/08/21 02:58:15;;;;;;;13.27;10.30;;;;;;;;;;5063308;28;20441;-81
2023/08/21 03:00:43;;;;;;;15.13;13.53;;;;;;;;;;5063308;28;20498;-81
2023/08/21 03:03:11;;;;;;;17.63;15.80;;;;;;;;;;5063654;28;20464;-81
2023/08/21 03:05:38;;;;;;;14.33;10.73;;;;;;;;;;5063569;28;20457;-81
2023/08/21 03:08:06;;;;;;;12.40;11.13;;;;;;;;;;5062812;28;20452;-81
2023/08/21 03:10:34;;;;;;;11.60;10.40;;;;;;;;;;5063694;28;20444;-82
2023/08/21 03:13:02;;;;;;;12.07;10.80;;;;;;;;;;5063278;28;20560;-81
2023/08/21 03:15:29;;;;;;;12.67;11.40;;;;;;;;;;5064650;28;20893;-81
2023/08/21 03:17:57;;;;;;;12.90;10.97;;;;;;;;;;5064125;28;20842;-82
2023/08/21 03:20:24;;;;;;;17.37;12.60;;;;;;;;;;5063661;28;20870;-82
2023/08/21 03:22:52;;;;;;;13.37;11.63;;;;;;;;;;5063402;28;20552;-82
2023/08/21 03:25:20;;;;;;;19.20;16.87;;;;;;;;;;5063528;28;20449;-81
2023/08/21 03:27:49;;;;;;;14.23;12.67;;;;;;;;;;5062362;28;20433;-81
2023/08/21 03:30:16;;;;;;;16.90;11.67;;;;;;;;;;5064011;28;20461;-81
2023/08/21 03:32:43;;;;;;;13.00;11.37;;;;;;;;;;5063570;28;20477;-81
2023/08/21 03:35:10;;;;;;;13.97;11.33;;;;;;;;;;5062937;28;20496;-81
2023/08/21 03:37:38;;;;;;;13.03;11.73;;;;;;;;;;5064159;28;20455;-81
2023/08/21 03:40:05;;;;;;;20.57;12.43;;;;;;;;;;5063520;28;20532;-81
2023/08/21 03:42:33;;;;;;;15.40;10.93;;;;;;;;;;5063248;28;20477;-81
2023/08/21 03:45:01;;;;;;;11.20;10.10;;;;;;;;;;5062780;28;20452;-81
2023/08/21 03:47:28;;;;;;;13.17;11.77;;;;;;;;;;5062424;28;20464;-82
2023/08/21 03:49:55;;;;;;;13.83;12.23;;;;;;;;;;5063358;28;20828;-81
2023/08/21 03:52:22;;;;;;;14.27;12.87;;;;;;;;;;5063169;28;20484;-81
2023/08/21 03:54:49;;;;;;;14.73;11.47;;;;;;;;;;5066265;28;20484;-81
2023/08/21 03:57:16;;;;;;;11.70;10.60;;;;;;;;;;5067247;28;20445;-82
2023/08/21 03:59:45;;;;;;;14.10;12.33;;;;;;;;;;5066962;28;20512;-81
2023/08/21 04:02:12;;;;;;;14.23;10.93;;;;;;;;;;5066144;28;20469;-81
2023/08/21 04:04:39;;;;;;;14.23;10.93;;;;;;;;;;5066357;28;20471;-81
2023/08/21 04:07:06;;;;;;;11.20;10.10;;;;;;;;;;5066962;28;20452;-81
2023/08/21 04:09:33;;;;;;;14.60;11.23;;;;;;;;;;5067104;28;20448;-82
2023/08/21 04:12:00;;;;;;;12.43;11.33;;;;;;;;;;5066469;28;20473;-81
2023/08/21 04:14:28;;;;;;;11.97;10.47;;;;;;;;;;5065856;28;20441;-82
2023/08/21 04:16:56;;;;;;;14.97;11.57;;;;;;;;;;5064124;28;20452;-81
2023/08/21 04:19:24;;;;;;;12.67;11.47;;;;;;;;;;5064718;28;20468;-81
2023/08/21 04:21:51;;;;;;;13.60;11.03;;;;;;;;;;5063290;28;20483;-84
2023/08/21 04:24:18;;;;;;;13.77;11.30;;;;;;;;;;5062376;28;20802;-84
2023/08/21 04:26:45;;;;;;;14.67;12.83;;;;;;;;;;5062398;28;20449;-84
2023/08/21 04:29:12;;;;;;;12.13;11.03;;;;;;;;;;5062488;28;20467;-84
2023/08/21 04:31:39;;;;;;;12.50;11.30;;;;;;;;;;5062540;28;20929;-84
2023/08/21 04:34:08;;;;;;;18.47;14.50;;;;;;;;;;5063282;28;20496;-84
2023/08/21 04:36:35;;;;;;;15.30;12.20;;;;;;;;;;5062142;28;20485;-84
2023/08/21 04:39:02;;;;;;;23.60;12.20;;;;;;;;;;5061591;28;20448;-84
2023/08/21 04:41:30;;;;;;;13.63;12.07;;;;;;;;;;5060740;28;20992;-85
2023/08/21 04:43:57;;;;;;;13.87;10.93;;;;;;;;;;5062107;28;20995;-85
2023/08/21 04:46:24;;;;;;;11.53;10.40;;;;;;;;;;5061997;28;20449;-85
2023/08/21 04:48:51;;;;;;;13.70;12.40;;;;;;;;;;5062307;28;20456;-85
2023/08/21 04:51:20;;;;;;;11.00;9.90;;;;;;;;;;5061832;28;20449;-84
2023/08/21 04:53:47;;;;;;;12.90;11.60;;;;;;;;;;5059505;28;20488;-84
2023/08/21 04:56:14;;;;;;;11.60;10.60;;;;;;;;;;5059035;28;20993;-84
2023/08/21 04:58:41;;;;;;;10.50;9.40;;;;;;;;;;5059829;28;20630;-84
2023/08/21 05:01:08;;;;;;;10.80;8.70;;;;;;;;;;5058651;28;20469;-84
2023/08/21 05:03:35;;;;;;;9.20;8.43;;;;;;;;;;5058415;28;20483;-84
2023/08/21 05:06:03;;;;;;;9.23;8.33;;;;;;;;;;5058226;28;20821;-85
2023/08/21 05:08:31;;;;;;;8.63;7.83;;;;;;;;;;5058304;28;20512;-90
2023/08/21 05:10:58;;;;;;;9.27;8.40;;;;;;;;;;5057758;28;20463;-89
2023/08/21 05:13:26;;;;;;;10.33;8.70;;;;;;;;;;5058173;28;20477;-89
2023/08/21 05:15:54;;;;;;;8.83;8.13;;;;;;;;;;5058295;28;21016;-89
2023/08/21 05:18:21;;;;;;;9.23;8.33;;;;;;;;;;5057895;28;20457;-89
2023/08/21 05:20:48;;;;;;;8.40;7.60;;;;;;;;;;5057184;28;20472;-89
2023/08/21 05:23:15;;;;;;;8.80;6.90;;;;;;;;;;5057048;28;20572;-89
2023/08/21 05:25:44;;;;;;;8.90;7.80;;;;;;;;;;5057099;28;20441;-89
2023/08/21 05:28:11;;;;;;;8.13;6.83;;;;;;;;;;5057302;28;20451;-89
2023/08/21 05:30:38;;;;;;;8.00;7.20;;;;;;;;;;5057378;28;20460;-89
2023/08/21 05:33:05;;;;;;;10.87;8.00;;;;;;;;;;5045927;28;20893;-89
2023/08/21 05:35:35;;;;;;;8.33;7.50;;;;;;;;;;5048123;28;20496;-89
2023/08/21 05:38:02;;;;;;;7.53;6.83;;;;;;;;;;5055512;28;20868;-89
2023/08/21 05:40:29;;;;;;;8.63;7.73;;;;;;;;;;5056433;28;20941;-89
2023/08/21 05:42:58;;;;;;;7.83;7.10;;;;;;;;;;5056009;28;20483;-89
2023/08/21 05:45:25;;;;;;;7.53;6.83;;;;;;;;;;5056083;28;20985;-89
2023/08/21 05:47:52;;;;;;;8.40;7.50;;;;;;;;;;5055292;28;20444;-88
2023/08/21 05:50:19;;;;;;;10.60;6.77;;;;;;;;;;5055588;28;20456;-89
2023/08/21 05:52:47;;;;;;;7.07;6.43;;;;;;;;;;5056093;28;20472;-89
2023/08/21 05:55:14;;;;;;;7.93;6.90;;;;;;;;;;5055985;28;20550;-88
2023/08/21 05:57:41;;;;;;;8.67;7.10;;;;;;;;;;5056249;28;20467;-86
2023/08/21 06:00:10;;;;;;;9.20;7.00;;;;;;;;;;5055894;28;20466;-86
2023/08/21 06:02:37;;;;;;;7.60;7.00;;;;;;;;;;5056447;28;20452;-88
2023/08/21 06:05:05;;;;;;;8.63;7.13;;;;;;;;;;5054790;28;20465;-85
2023/08/21 06:07:34;;;;;;;7.33;6.83;;;;;;;;;;5056444;28;20448;-89
2023/08/21 06:10:01;;;;;;;7.90;7.10;;;;;;;;;;5056900;28;20485;-87
2023/08/21 06:12:28;;;;;;;7.50;6.90;;;;;;;;;;5057052;28;20229;-85
2023/08/21 06:14:55;;;;;;;7.20;6.55;;;;;;;;;;5057213;28;20209;-88
2023/08/21 06:17:23;;;;;;;7.22;6.72;;;;;;;;;;5056094;28;20221;-87
2023/08/21 06:19:51;;;;;;;7.07;6.47;;;;;;;;;;5056988;28;20206;-87
2023/08/21 06:22:18;;;;;;;7.57;6.88;;;;;;;;;;5056268;28;20574;-87
2023/08/21 06:24:45;;;;;;;6.43;5.93;;;;;;;;;;5056366;28;20205;-86
2023/08/21 06:27:12;;;;;;;5.43;5.03;;;;;;;;;;5056825;28;20683;-87
2023/08/21 06:29:40;;;;;;;7.82;6.55;;;;;;;;;;5056041;28;20304;-88
2023/08/21 06:32:07;;;;;;;6.88;6.32;;;;;;;;;;5056728;28;20229;-85
2023/08/21 06:34:36;;;;;;;6.22;5.60;;;;;;;;;;5056306;28;20248;-85
2023/08/21 06:37:03;;;;;;;6.43;5.85;;;;;;;;;;5055488;28;20233;-85
2023/08/21 06:39:30;;;;;;;5.32;4.95;;;;;;;;;;5056654;28;20231;-85
2023/08/21 06:41:57;;;;;;;6.55;6.00;;;;;;;;;;5056258;28;20217;-84
2023/08/21 06:44:25;;;;;;;5.65;5.25;;;;;;;;;;5056326;28;20206;-84
2023/08/21 06:46:52;;;;;;;6.85;5.65;;;;;;;;;;5056377;28;20206;-84
2023/08/21 06:49:19;;;;;;;6.32;5.30;;;;;;;;;;5055640;28;20658;-84
2023/08/21 06:51:47;;;;;;;5.63;5.22;;;;;;;;;;5055921;28;20233;-85
2023/08/21 06:54:14;;;;;;;5.63;5.22;;;;;;;;;;5056074;28;20232;-84
2023/08/21 06:56:41;;;;;;;6.22;5.82;;;;;;;;;;5055766;28;20230;-85
2023/08/21 06:59:09;;;;;;;6.10;5.60;;;;;;;;;;5056539;28;20220;-85
2023/08/21 07:01:36;;;;;;;8.68;5.97;;;;;;;;;;5055860;28;20220;-85
2023/08/21 07:04:03;;;;;;;6.75;5.90;;;;;;;;;;5056595;28;20209;-85
2023/08/21 07:06:31;;;;;;;5.82;5.22;;;;;;;;;;5056414;28;20682;-85
2023/08/21 07:09:00;;;;;;;8.48;6.03;;;;;;;;;;5056337;28;20634;-84
2023/08/21 07:11:27;;;;;;;5.45;5.00;;;;;;;;;;5057033;28;20206;-85
2023/08/21 07:13:54;;;;;;;6.20;5.60;;;;;;;;;;5058119;28;20653;-84
2023/08/21 07:16:21;;;;;;;8.15;7.35;;;;;;;;;;5056428;28;20259;-85
2023/08/21 07:18:48;;;;;;;8.50;5.28;;;;;;;;;;5056644;28;20220;-86
2023/08/21 07:21:16;;;;;;;8.00;7.40;;;;;;;;;;5056548;28;20201;-85
2023/08/21 07:23:43;;;;;;;7.60;7.00;;;;;;;;;;5056694;28;20260;-85
2023/08/21 07:26:11;;;;;;;6.22;5.70;;;;;;;;;;5056100;28;20623;-86
2023/08/21 07:28:38;;;;;;;6.00;5.55;;;;;;;;;;5056146;28;20217;-84
2023/08/21 07:31:06;;;;;;;5.95;5.50;;;;;;;;;;5059259;28;20209;-86
2023/08/21 07:33:33;;;;;;;6.50;5.70;;;;;;;;;;5059423;28;20227;-86
2023/08/21 07:36:00;;;;;;;6.82;6.43;;;;;;;;;;5060347;28;20221;-84
2023/08/21 07:38:27;;;;;;;9.38;5.30;;;;;;;;;;5061071;28;20217;-85
2023/08/21 07:41:04;;;;;;;5.80;5.30;;;;;;;;;;5060766;28;20705;-86
2023/08/21 07:43:32;;;;;;;6.32;5.68;;;;;;;;;;5059709;28;20225;-85
2023/08/21 07:45:59;;;;;;;6.43;5.82;;;;;;;;;;5058226;28;20209;-85
2023/08/21 07:48:26;;;;;;;6.63;6.03;;;;;;;;;;5059408;28;20213;-85
2023/08/21 07:50:53;;;;;;;6.40;5.82;;;;;;;;;;5058366;28;20287;-82
2023/08/21 07:53:21;;;;;;;6.88;6.13;;;;;;;;;;5058978;28;20233;-84
2023/08/21 07:55:48;;;;;;;8.57;6.25;;;;;;;;;;5058543;28;20226;-83
2023/08/21 07:58:15;;;;;;;6.63;6.13;;;;;;;;;;5058645;28;20216;-83
2023/08/21 08:00:43;;;;;;;7.87;6.87;;;;;;;;;;5059259;28;20227;-84
2023/08/21 08:03:11;;;;;;;8.17;7.37;;;;;;;;;;5059096;28;20241;-84
2023/08/21 08:05:39;;;;;;;8.90;6.70;;;;;;;;;;5059279;28;20468;-82
2023/08/21 08:08:06;;;;;;;8.70;7.20;;;;;;;;;;5059271;28;20459;-82
2023/08/21 08:10:33;;;;;;;8.10;7.13;;;;;;;;;;5059576;28;20463;-82
2023/08/21 08:13:00;;;;;;;8.13;6.53;;;;;;;;;;5059076;28;20468;-83
2023/08/21 08:15:27;;;;;;;8.90;8.10;;;;;;;;;;5058582;28;20440;-84
2023/08/21 08:17:56;;;;;;;9.03;8.23;;;;;;;;;;5058766;28;20936;-83
2023/08/21 08:20:23;;;;;;;10.23;7.47;;;;;;;;;;5058487;28;20445;-84
2023/08/21 08:22:51;;;;;;;8.43;7.80;;;;;;;;;;5058552;28;20460;-84
2023/08/21 08:25:18;;;;;;;9.87;8.93;;;;;;;;;;5058739;28;20448;-84
2023/08/21 08:27:45;;;;;;;9.23;7.60;;;;;;;;;;5058192;28;20452;-84
2023/08/21 08:30:12;;;;;;;8.73;7.93;;;;;;;;;;5058448;28;20463;-83
2023/08/21 08:32:40;;;;;;;9.27;8.37;;;;;;;;;;5058293;28;20568;-82
2023/08/21 08:35:09;;;;;;;6.93;6.33;;;;;;;;;;5058100;28;20452;-84
2023/08/21 08:37:36;;;;;;;7.77;7.07;;;;;;;;;;5057980;28;20491;-82
2023/08/21 08:40:04;;;;;;;9.17;8.37;;;;;;;;;;5057915;28;20945;-82
2023/08/21 08:42:31;;;;;;;9.03;8.27;;;;;;;;;;5058260;28;20518;-85
2023/08/21 08:45:03;;;;;;;10.80;9.80;;;;;;;;;;5058371;28;20444;-85
2023/08/21 08:47:30;;;;;;;10.37;9.30;;;;;;;;;;5058434;28;20517;-84
2023/08/21 08:49:58;;;;;;;11.93;9.10;;;;;;;;;;5058791;28;20452;-82
2023/08/21 08:52:28;;;;;;;9.20;8.40;;;;;;;;;;5058961;28;20468;-83
2023/08/21 08:54:57;;;;;;;7.73;7.20;;;;;;;;;;5058248;28;20448;-84
2023/08/21 08:57:24;;;;;;;8.73;7.93;;;;;;;;;;5058045;28;20976;-82
2023/08/21 08:59:52;;;;;;;12.23;8.10;;;;;;;;;;5060799;28;20650;-83
2023/08/21 09:02:19;;;;;;;9.43;8.73;;;;;;;;;;5057719;28;20472;-83
2023/08/21 09:04:46;;;;;;;8.90;8.10;;;;;;;;;;5058172;28;20947;-83
2023/08/21 09:07:14;;;;;;;12.37;8.97;;;;;;;;;;5058175;28;20459;-83
2023/08/21 09:09:43;;;;;;;9.00;8.17;;;;;;;;;;5057785;28;20459;-84
2023/08/21 09:12:11;;;;;;;9.00;8.20;;;;;;;;;;5056538;28;20499;-83
2023/08/21 09:14:39;;;;;;;10.63;9.10;;;;;;;;;;5057522;28;20789;-84
2023/08/21 09:17:06;;;;;;;7.20;6.60;;;;;;;;;;5056513;28;20499;-83
2023/08/21 09:19:33;;;;;;;6.83;6.07;;;;;;;;;;5058026;28;20448;-85
2023/08/21 09:22:00;;;;;;;7.00;6.37;;;;;;;;;;5057776;28;20488;-84
2023/08/21 09:24:27;;;;;;;6.93;6.33;;;;;;;;;;5057051;28;20437;-84
2023/08/21 09:26:56;;;;;;;6.60;6.10;;;;;;;;;;5056963;28;20500;-84
2023/08/21 09:29:24;;;;;;;7.00;6.40;;;;;;;;;;5056832;28;20456;-84
2023/08/21 09:31:51;;;;;;;8.13;6.67;;;;;;;;;;5059153;28;20479;-83
2023/08/21 09:34:18;;;;;;;7.57;6.87;;;;;;;;;;5059183;28;20440;-83
2023/08/21 09:36:55;;;;;;;9.10;6.57;;;;;;;;;;5058460;28;21054;-84
2023/08/21 09:39:23;;;;;;;6.27;5.77;;;;;;;;;;5059170;28;20428;-84
2023/08/21 09:41:58;;;;;;;6.60;6.00;;;;;;;;;;5058117;28;20530;-84
2023/08/21 09:44:25;;;;;;;7.53;5.70;;;;;;;;;;5058662;28;20443;-84
2023/08/21 09:46:52;;;;;;;8.97;6.97;;;;;;;;;;5059184;28;20440;-84
2023/08/21 09:49:21;;;;;;;7.53;6.80;;;;;;;;;;5059311;28;20432;-84
2023/08/21 09:51:48;;;;;;;7.30;6.67;;;;;;;;;;5059420;28;20507;-85
2023/08/21 09:54:16;;;;;;;7.77;7.00;;;;;;;;;;5059858;28;20460;-84
2023/08/21 09:56:43;;;;;;;7.50;6.57;;;;;;;;;;5059969;28;20530;-84
2023/08/21 09:59:12;;;;;;;8.93;7.33;;;;;;;;;;5059307;28;20452;-82
2023/08/21 10:01:40;;;;;;;7.83;7.20;;;;;;;;;;5059365;28;20455;-82
2023/08/21 10:04:09;;;;;;;7.63;6.10;;;;;;;;;;5059972;28;20514;-82
2023/08/21 10:06:37;;;;;;;7.20;6.60;;;;;;;;;;5059505;28;20450;-83
2023/08/21 10:09:04;;;;;;;8.60;7.77;;;;;;;;;;5059785;28;20925;-82
2023/08/21 10:11:31;;;;;;;7.00;6.40;;;;;;;;;;5059423;28;20436;-82
2023/08/21 10:13:59;;;;;;;7.47;6.87;;;;;;;;;;5060406;28;20440;-82
2023/08/21 10:16:27;;;;;;;7.80;6.47;;;;;;;;;;5059542;28;20451;-82
2023/08/21 10:18:54;;;;;;;8.50;7.70;;;;;;;;;;5059956;28;20470;-82
2023/08/21 10:21:25;;;;;;;7.20;6.60;;;;;;;;;;5059420;28;20973;-81
2023/08/21 10:23:52;;;;;;;10.37;7.30;;;;;;;;;;5059509;28;20514;-84
2023/08/21 10:26:20;;;;;;;7.80;7.20;;;;;;;;;;5059462;28;20483;-84
2023/08/21 10:28:51;;;;;;;9.43;7.13;;;;;;;;;;5058896;28;20461;-84
2023/08/21 10:31:33;;;;;;;7.83;6.80;;;;;;;;;;5058947;28;20510;-84
2023/08/21 10:34:01;;;;;;;6.93;6.33;;;;;;;;;;5058469;28;20490;-83
2023/08/21 10:36:41;;;;;;;8.90;6.63;;;;;;;;;;5058985;28;20463;-83
2023/08/21 10:39:14;;;;;;;10.70;7.63;;;;;;;;;;5058727;28;20821;-84
2023/08/21 10:41:41;;;;;;;11.00;6.73;;;;;;;;;;5059203;28;20583;-84
2023/08/21 10:44:09;;;;;;;9.23;7.50;;;;;;;;;;5058208;28;20509;-84
2023/08/21 10:46:51;;;;;;;8.20;7.50;;;;;;;;;;5058829;28;20836;-83
2023/08/21 10:49:20;;;;;;;7.70;6.93;;;;;;;;;;5058747;28;20456;-83
2023/08/21 10:51:47;;;;;;;7.23;6.63;;;;;;;;;;5058096;28;20834;-84
2023/08/21 10:54:15;;;;;;;7.13;6.53;;;;;;;;;;5058929;28;20437;-83
2023/08/21 10:56:42;;;;;;;8.93;6.73;;;;;;;;;;5058161;28;20842;-83
2023/08/21 10:59:10;;;;;;;11.27;7.53;;;;;;;;;;5058409;28;20444;-85
2023/08/21 11:01:44;;;;;;;7.43;6.73;;;;;;;;;;5058531;28;20452;-83
2023/08/21 11:04:11;;;;;;;7.23;6.63;;;;;;;;;;5060232;28;20467;-84
2023/08/21 11:06:40;;;;;;;7.27;6.57;;;;;;;;;;5062701;28;20439;-84
2023/08/21 11:09:13;;;;;;;11.33;7.83;;;;;;;;;;5062957;28;20459;-83
2023/08/21 11:11:41;;;;;;;7.50;6.90;;;;;;;;;;5062150;28;20423;-83
2023/08/21 11:14:08;;;;;;;7.17;6.33;;;;;;;;;;5062904;28;20428;-84
2023/08/21 11:16:35;;;;;;;7.43;6.53;;;;;;;;;;5063038;28;20523;-84
2023/08/21 11:19:05;;;;;;;7.77;6.97;;;;;;;;;;5062432;28;20497;-84
2023/08/21 11:21:32;;;;;;;7.27;6.67;;;;;;;;;;5062532;28;20460;-84
2023/08/21 11:24:01;;;;;;;6.90;6.30;;;;;;;;;;5063154;28;20224;-84
2023/08/21 11:26:29;;;;;;;7.57;6.77;;;;;;;;;;5063893;28;20840;-84
2023/08/21 11:28:57;;;;;;;9.40;8.00;;;;;;;;;;5062655;28;20212;-84
2023/08/21 11:31:24;;;;;;;6.90;6.20;;;;;;;;;;5063592;28;20300;-83
2023/08/21 11:33:51;;;;;;;9.53;6.67;;;;;;;;;;5063016;28;20205;-84
2023/08/21 11:36:19;;;;;;;8.30;7.33;;;;;;;;;;5064383;28;20445;-84
2023/08/21 11:38:59;;;;;;;7.40;6.60;;;;;;;;;;5062816;28;20241;-85
2023/08/21 11:41:28;;;;;;;8.07;6.10;;;;;;;;;;5062041;28;20289;-84
2023/08/21 11:43:58;;;;;;;10.60;7.20;;;;;;;;;;5061314;28;20463;-84
2023/08/21 11:46:27;;;;;;;8.83;5.83;;;;;;;;;;5062358;28;20221;-84
2023/08/21 11:48:54;;;;;;;8.53;7.33;;;;;;;;;;5061291;28;20216;-84
2023/08/21 11:51:21;;;;;;;7.47;6.87;;;;;;;;;;5062046;28;20577;-84
2023/08/21 11:53:49;;;;;;;9.97;6.13;;;;;;;;;;5061972;28;20225;-84
2023/08/21 11:56:17;;;;;;;7.37;6.60;;;;;;;;;;5060508;28;20276;-84
2023/08/21 11:58:46;;;;;;;6.80;5.80;;;;;;;;;;5059968;28;20230;-84
2023/08/21 12:01:17;;;;;;;9.37;6.67;;;;;;;;;;5063473;28;20439;-84
2023/08/21 12:03:45;;;;;;;7.33;6.70;;;;;;;;;;5059865;28;21047;-84
2023/08/21 12:06:13;;;;;;;7.60;6.57;;;;;;;;;;5060125;28;20447;-84
2023/08/21 12:08:40;;;;;;;7.97;6.23;;;;;;;;;;5059690;28;20451;-83
2023/08/21 12:11:07;;;;;;;7.83;6.40;;;;;;;;;;5059527;28;20471;-81
2023/08/21 12:13:34;;;;;;;13.57;6.73;;;;;;;;;;5059684;28;20480;-83
2023/08/21 12:16:03;;;;;;;9.67;6.40;;;;;;;;;;5060038;28;20471;-84
2023/08/21 12:18:30;;;;;;;6.97;5.83;;;;;;;;;;5060169;28;20496;-84
2023/08/21 12:20:57;;;;;;;6.67;5.60;;;;;;;;;;5060349;28;20462;-84
2023/08/21 12:23:24;;;;;;;7.83;6.97;;;;;;;;;;5060461;28;20973;-84
2023/08/21 12:25:51;;;;;;;7.97;6.70;;;;;;;;;;5059782;28;20781;-83
2023/08/21 12:28:18;;;;;;;7.63;6.90;;;;;;;;;;5059367;28;20979;-84
2023/08/21 12:30:47;;;;;;;8.60;6.47;;;;;;;;;;5059147;28;20449;-83
2023/08/21 12:33:15;;;;;;;7.10;6.50;;;;;;;;;;5059828;28;20476;-84
2023/08/21 12:35:42;;;;;;;7.33;6.73;;;;;;;;;;5059252;28;20464;-83
2023/08/21 12:38:12;;;;;;;10.93;6.20;;;;;;;;;;5058321;28;20484;-82
2023/08/21 12:40:39;;;;;;;6.50;5.90;;;;;;;;;;5058167;28;20444;-82
2023/08/21 12:43:06;;;;;;;7.53;6.50;;;;;;;;;;5058122;28;20815;-83
2023/08/21 12:45:33;;;;;;;5.97;5.37;;;;;;;;;;5059357;28;20436;-83
2023/08/21 12:48:00;;;;;;;10.70;6.70;;;;;;;;;;5058163;28;20458;-84
2023/08/21 12:50:29;;;;;;;5.87;5.27;;;;;;;;;;5058341;28;20444;-84
2023/08/21 12:52:56;;;;;;;6.97;5.80;;;;;;;;;;5059174;28;20476;-84
2023/08/21 12:55:23;;;;;;;13.83;6.00;;;;;;;;;;5059056;28;20456;-83
2023/08/21 12:57:50;;;;;;;6.37;5.70;;;;;;;;;;5059234;28;20840;-84
2023/08/21 13:00:18;;;;;;;6.80;6.20;;;;;;;;;;5059409;28;20447;-83
2023/08/21 13:02:45;;;;;;;15.43;7.40;;;;;;;;;;5059043;28;20469;-83
2023/08/21 13:05:12;;;;;;;11.00;5.90;;;;;;;;;;5061174;28;20495;-83
2023/08/21 13:07:41;;;;;;;6.67;5.83;;;;;;;;;;5058159;28;20448;-82
2023/08/21 13:10:08;;;;;;;7.90;6.77;;;;;;;;;;5058212;28;20564;-83
2023/08/21 13:12:35;;;;;;;7.50;6.70;;;;;;;;;;5056945;28;20468;-83
2023/08/21 13:15:03;;;;;;;8.47;6.07;;;;;;;;;;5058399;28;20456;-84
2023/08/21 13:17:30;;;;;;;8.23;6.03;;;;;;;;;;5058178;28;20492;-82
2023/08/21 13:19:57;;;;;;;12.30;6.33;;;;;;;;;;5058127;28;20586;-84
2023/08/21 13:22:24;;;;;;;8.50;5.57;;;;;;;;;;5057778;28;20461;-80
2023/08/21 13:24:53;;;;;;;6.53;5.60;;;;;;;;;;5056832;28;20456;-83
2023/08/21 13:27:20;;;;;;;6.67;5.60;;;;;;;;;;5056015;28;20455;-84
2023/08/21 13:29:47;;;;;;;9.10;6.30;;;;;;;;;;5056590;28;20452;-82
2023/08/21 13:32:14;;;;;;;8.27;5.40;;;;;;;;;;5056634;28;20473;-83
2023/08/21 13:34:41;;;;;;;6.73;5.90;;;;;;;;;;5056935;28;20459;-83
2023/08/21 13:37:08;;;;;;;6.63;5.50;;;;;;;;;;5056044;28;20448;-84
2023/08/21 13:39:35;;;;;;;8.57;6.43;;;;;;;;;;5057101;28;20861;-84
2023/08/21 13:42:04;;;;;;;7.40;5.67;;;;;;;;;;5056765;28;20465;-83
2023/08/21 13:44:31;;;;;;;6.10;5.60;;;;;;;;;;5056899;28;20486;-83
2023/08/21 13:46:58;;;;;;;10.30;6.10;;;;;;;;;;5056996;28;20829;-82
2023/08/21 13:49:25;;;;;;;8.30;6.37;;;;;;;;;;5057625;28;20451;-83
2023/08/21 13:51:52;;;;;;;8.00;5.80;;;;;;;;;;5056597;28;20989;-82
2023/08/21 13:54:19;;;;;;;7.30;6.60;;;;;;;;;;5057043;28;20463;-82
2023/08/21 13:56:46;;;;;;;16.97;8.00;;;;;;;;;;5056446;28;20532;-82
2023/08/21 13:59:15;;;;;;;7.97;7.17;;;;;;;;;;5056020;28;20807;-82
2023/08/21 14:01:42;;;;;;;14.03;7.40;;;;;;;;;;5056595;28;20480;-83
2023/08/21 14:04:10;;;;;;;9.03;7.07;;;;;;;;;;5056378;28;20512;-82
2023/08/21 14:06:37;;;;;;;11.23;7.23;;;;;;;;;;5056605;28;20437;-83
2023/08/21 14:09:04;;;;;;;12.07;7.77;;;;;;;;;;5055732;28;20444;-82
2023/08/21 14:11:31;;;;;;;8.17;7.37;;;;;;;;;;5055682;28;20444;-83
2023/08/21 14:13:58;;;;;;;10.83;7.50;;;;;;;;;;5056510;28;20493;-83
2023/08/21 14:16:27;;;;;;;7.83;6.67;;;;;;;;;;5056069;28;20468;-83
2023/08/21 14:18:54;;;;;;;9.03;6.63;;;;;;;;;;5054400;28;20489;-83
2023/08/21 14:21:21;;;;;;;6.80;6.20;;;;;;;;;;5056230;28;20456;-83
2023/08/21 14:23:48;;;;;;;10.03;6.70;;;;;;;;;;5055826;28;20479;-83
2023/08/21 14:26:15;;;;;;;8.20;7.03;;;;;;;;;;5055793;28;20949;-82
2023/08/21 14:28:44;;;;;;;8.10;6.37;;;;;;;;;;5055229;28;20449;-83
2023/08/21 14:31:11;;;;;;;8.60;7.13;;;;;;;;;;5055208;28;20460;-83
2023/08/21 14:33:40;;;;;;;9.53;7.10;;;;;;;;;;5055474;28;20484;-81
2023/08/21 14:36:07;;;;;;;7.30;6.20;;;;;;;;;;5055339;28;20453;-82